sensor_id;sensor_type;location;lat;lon;timestamp;P1;durP1;ratioP1;P2;durP2;ratioP2
651;SDS011;310;48.490;9.200;2022-07-05T00:00:45;12.17;;;6.00;;
651;SDS011;310;48.490;9.200;2022-07-05T00:03:11;9.77;;;6.43;;
651;SDS011;310;48.490;9.200;2022-07-05T00:05:37;9.40;;;6.53;;
651;SDS011;310;48.490;9.200;2022-07-05T00:08:04;6.53;;;5.83;;
651;SDS011;310;48.490;9.200;2022-07-05T00:10:30;7.70;;;6.20;;
651;SDS011;310;48.490;9.200;2022-07-05T00:12:56;17.57;;;5.97;;
651;SDS011;310;48.490;9.200;2022-07-05T00:15:22;18.63;;;7.30;;
651;SDS011;310;48.490;9.200;2022-07-05T00:17:48;8.80;;;6.33;;
651;SDS011;310;48.490;9.200;2022-07-05T00:20:14;10.87;;;6.33;;
651;SDS011;310;48.490;9.200;2022-07-05T00:22:39;8.17;;;6.27;;
651;SDS011;310;48.490;9.200;2022-07-05T00:25:05;6.93;;;6.50;;
651;SDS011;310;48.490;9.200;2022-07-05T00:27:31;7.37;;;6.23;;
651;SDS011;310;48.490;9.200;2022-07-05T00:29:57;9.27;;;6.43;;
651;SDS011;310;48.490;9.200;2022-07-05T00:32:23;9.90;;;6.50;;
651;SDS011;310;48.490;9.200;2022-07-05T00:34:48;7.00;;;6.50;;
651;SDS011;310;48.490;9.200;2022-07-05T00:37:14;7.13;;;6.33;;
651;SDS011;310;48.490;9.200;2022-07-05T00:39:39;8.20;;;6.27;;
651;SDS011;310;48.490;9.200;2022-07-05T00:42:05;10.80;;;6.47;;
651;SDS011;310;48.490;9.200;2022-07-05T00:44:33;8.03;;;5.97;;
651;SDS011;310;48.490;9.200;2022-07-05T00:47:00;7.27;;;6.10;;
651;SDS011;310;48.490;9.200;2022-07-05T00:49:27;9.80;;;6.20;;
651;SDS011;310;48.490;9.200;2022-07-05T00:51:54;7.63;;;6.33;;
651;SDS011;310;48.490;9.200;2022-07-05T00:54:19;10.40;;;7.50;;
651;SDS011;310;48.490;9.200;2022-07-05T00:56:45;11.80;;;7.43;;
651;SDS011;310;48.490;9.200;2022-07-05T00:59:11;13.93;;;9.70;;
651;SDS011;310;48.490;9.200;2022-07-05T01:01:37;17.43;;;9.87;;
651;SDS011;310;48.490;9.200;2022-07-05T01:04:03;18.33;;;9.93;;
651;SDS011;310;48.490;9.200;2022-07-05T01:06:28;15.43;;;9.30;;
651;SDS011;310;48.490;9.200;2022-07-05T01:08:54;12.83;;;8.63;;
651;SDS011;310;48.490;9.200;2022-07-05T01:11:20;11.77;;;7.60;;
651;SDS011;310;48.490;9.200;2022-07-05T01:13:45;20.80;;;8.87;;
651;SDS011;310;48.490;9.200;2022-07-05T01:16:12;11.00;;;7.90;;
651;SDS011;310;48.490;9.200;2022-07-05T01:18:38;12.37;;;8.20;;
651;SDS011;310;48.490;9.200;2022-07-05T01:21:04;10.60;;;8.03;;
651;SDS011;310;48.490;9.200;2022-07-05T01:23:30;13.13;;;8.43;;
651;SDS011;310;48.490;9.200;2022-07-05T01:26:01;11.23;;;8.17;;
651;SDS011;310;48.490;9.200;2022-07-05T01:28:27;12.37;;;8.10;;
651;SDS011;310;48.490;9.200;2022-07-05T01:30:53;13.10;;;8.10;;
651;SDS011;310;48.490;9.200;2022-07-05T01:33:19;9.40;;;7.53;;
651;SDS011;310;48.490;9.200;2022-07-05T01:35:52;12.67;;;8.47;;
651;SDS011;310;48.490;9.200;2022-07-05T01:38:18;15.53;;;7.70;;
651;SDS011;310;48.490;9.200;2022-07-05T01:40:44;11.10;;;7.70;;
651;SDS011;310;48.490;9.200;2022-07-05T01:43:09;11.17;;;7.30;;
651;SDS011;310;48.490;9.200;2022-07-05T01:45:35;9.03;;;7.43;;
651;SDS011;310;48.490;9.200;2022-07-05T01:48:10;9.40;;;7.37;;
651;SDS011;310;48.490;9.200;2022-07-05T01:50:48;9.63;;;7.50;;
651;SDS011;310;48.490;9.200;2022-07-05T01:53:16;12.67;;;7.67;;
651;SDS011;310;48.490;9.200;2022-07-05T01:55:44;15.67;;;7.70;;
651;SDS011;310;48.490;9.200;2022-07-05T01:58:11;12.43;;;8.47;;
651;SDS011;310;48.490;9.200;2022-07-05T02:00:46;13.33;;;8.60;;
651;SDS011;310;48.490;9.200;2022-07-05T02:03:14;12.60;;;8.50;;
651;SDS011;310;48.490;9.200;2022-07-05T02:05:41;13.27;;;7.97;;
651;SDS011;310;48.490;9.200;2022-07-05T02:08:09;12.47;;;8.07;;
651;SDS011;310;48.490;9.200;2022-07-05T02:10:35;11.13;;;8.00;;
651;SDS011;310;48.490;9.200;2022-07-05T02:13:02;13.33;;;8.10;;
651;SDS011;310;48.490;9.200;2022-07-05T02:15:35;14.27;;;7.90;;
651;SDS011;310;48.490;9.200;2022-07-05T02:18:03;10.27;;;8.33;;
651;SDS011;310;48.490;9.200;2022-07-05T02:20:30;11.97;;;8.20;;
651;SDS011;310;48.490;9.200;2022-07-05T02:22:56;11.33;;;8.00;;
651;SDS011;310;48.490;9.200;2022-07-05T02:25:22;10.83;;;8.30;;
651;SDS011;310;48.490;9.200;2022-07-05T02:27:48;12.30;;;7.97;;
651;SDS011;310;48.490;9.200;2022-07-05T02:30:14;13.60;;;8.50;;
651;SDS011;310;48.490;9.200;2022-07-05T02:32:40;10.83;;;8.27;;
651;SDS011;310;48.490;9.200;2022-07-05T02:35:07;13.57;;;8.90;;
651;SDS011;310;48.490;9.200;2022-07-05T02:37:34;15.20;;;10.47;;
651;SDS011;310;48.490;9.200;2022-07-05T02:40:00;14.27;;;10.10;;
651;SDS011;310;48.490;9.200;2022-07-05T02:42:25;11.27;;;9.93;;
651;SDS011;310;48.490;9.200;2022-07-05T02:44:51;11.20;;;9.63;;
651;SDS011;310;48.490;9.200;2022-07-05T02:47:17;13.63;;;9.23;;
651;SDS011;310;48.490;9.200;2022-07-05T02:49:42;12.70;;;8.70;;
651;SDS011;310;48.490;9.200;2022-07-05T02:52:08;12.17;;;8.30;;
651;SDS011;310;48.490;9.200;2022-07-05T02:54:34;9.87;;;8.60;;
651;SDS011;310;48.490;9.200;2022-07-05T02:57:00;11.03;;;8.77;;
651;SDS011;310;48.490;9.200;2022-07-05T02:59:25;10.77;;;8.57;;
651;SDS011;310;48.490;9.200;2022-07-05T03:01:51;15.27;;;8.40;;
651;SDS011;310;48.490;9.200;2022-07-05T03:04:17;12.20;;;7.70;;
651;SDS011;310;48.490;9.200;2022-07-05T03:06:43;11.07;;;8.00;;
651;SDS011;310;48.490;9.200;2022-07-05T03:09:08;15.40;;;7.77;;
651;SDS011;310;48.490;9.200;2022-07-05T03:11:35;10.60;;;7.63;;
651;SDS011;310;48.490;9.200;2022-07-05T03:14:01;11.27;;;8.67;;
651;SDS011;310;48.490;9.200;2022-07-05T03:16:27;8.73;;;7.40;;
651;SDS011;310;48.490;9.200;2022-07-05T03:18:54;12.13;;;8.17;;
651;SDS011;310;48.490;9.200;2022-07-05T03:21:19;10.70;;;7.80;;
651;SDS011;310;48.490;9.200;2022-07-05T03:23:45;11.30;;;8.00;;
651;SDS011;310;48.490;9.200;2022-07-05T03:26:11;9.37;;;7.37;;
651;SDS011;310;48.490;9.200;2022-07-05T03:28:36;13.63;;;8.00;;
651;SDS011;310;48.490;9.200;2022-07-05T03:31:02;13.90;;;8.13;;
651;SDS011;310;48.490;9.200;2022-07-05T03:33:27;10.07;;;8.33;;
651;SDS011;310;48.490;9.200;2022-07-05T03:35:53;10.70;;;8.30;;
651;SDS011;310;48.490;9.200;2022-07-05T03:38:19;14.10;;;7.93;;
651;SDS011;310;48.490;9.200;2022-07-05T03:40:44;10.63;;;8.43;;
651;SDS011;310;48.490;9.200;2022-07-05T03:43:10;9.70;;;8.20;;
651;SDS011;310;48.490;9.200;2022-07-05T03:45:35;11.30;;;8.10;;
651;SDS011;310;48.490;9.200;2022-07-05T03:48:01;11.10;;;8.03;;
651;SDS011;310;48.490;9.200;2022-07-05T03:50:27;10.97;;;8.47;;
651;SDS011;310;48.490;9.200;2022-07-05T03:52:53;10.13;;;7.97;;
651;SDS011;310;48.490;9.200;2022-07-05T03:55:19;11.27;;;8.43;;
651;SDS011;310;48.490;9.200;2022-07-05T03:57:44;13.90;;;8.67;;
651;SDS011;310;48.490;9.200;2022-07-05T04:00:11;10.20;;;8.10;;
651;SDS011;310;48.490;9.200;2022-07-05T04:02:37;13.70;;;8.27;;
651;SDS011;310;48.490;9.200;2022-07-05T04:05:03;9.30;;;8.50;;
651;SDS011;310;48.490;9.200;2022-07-05T04:07:29;10.83;;;8.50;;
651;SDS011;310;48.490;9.200;2022-07-05T04:09:55;10.57;;;8.70;;
651;SDS011;310;48.490;9.200;2022-07-05T04:12:21;11.10;;;8.30;;
651;SDS011;310;48.490;9.200;2022-07-05T04:14:46;12.27;;;8.50;;
651;SDS011;310;48.490;9.200;2022-07-05T04:17:12;11.23;;;8.30;;
651;SDS011;310;48.490;9.200;2022-07-05T04:19:38;16.43;;;8.63;;
651;SDS011;310;48.490;9.200;2022-07-05T04:22:03;11.67;;;8.00;;
651;SDS011;310;48.490;9.200;2022-07-05T04:24:29;12.10;;;8.13;;
651;SDS011;310;48.490;9.200;2022-07-05T04:26:55;9.20;;;7.90;;
651;SDS011;310;48.490;9.200;2022-07-05T04:29:20;10.50;;;7.90;;
651;SDS011;310;48.490;9.200;2022-07-05T04:31:46;9.30;;;7.40;;
651;SDS011;310;48.490;9.200;2022-07-05T04:34:12;10.87;;;8.87;;
651;SDS011;310;48.490;9.200;2022-07-05T04:36:37;10.10;;;7.83;;
651;SDS011;310;48.490;9.200;2022-07-05T04:39:05;10.70;;;8.23;;
651;SDS011;310;48.490;9.200;2022-07-05T04:41:31;11.70;;;8.43;;
651;SDS011;310;48.490;9.200;2022-07-05T04:43:57;9.67;;;8.27;;
651;SDS011;310;48.490;9.200;2022-07-05T04:46:23;15.07;;;9.20;;
651;SDS011;310;48.490;9.200;2022-07-05T04:48:48;13.43;;;9.50;;
651;SDS011;310;48.490;9.200;2022-07-05T04:51:14;19.17;;;10.20;;
651;SDS011;310;48.490;9.200;2022-07-05T04:53:40;11.60;;;9.80;;
651;SDS011;310;48.490;9.200;2022-07-05T04:56:06;12.47;;;8.90;;
651;SDS011;310;48.490;9.200;2022-07-05T04:58:32;12.17;;;8.70;;
651;SDS011;310;48.490;9.200;2022-07-05T05:00:58;10.10;;;8.60;;
651;SDS011;310;48.490;9.200;2022-07-05T05:03:24;10.03;;;7.90;;
651;SDS011;310;48.490;9.200;2022-07-05T05:05:50;10.30;;;8.67;;
651;SDS011;310;48.490;9.200;2022-07-05T05:08:15;22.93;;;10.10;;
651;SDS011;310;48.490;9.200;2022-07-05T05:10:41;18.53;;;10.40;;
651;SDS011;310;48.490;9.200;2022-07-05T05:13:06;11.40;;;8.80;;
651;SDS011;310;48.490;9.200;2022-07-05T05:15:32;14.27;;;10.40;;
651;SDS011;310;48.490;9.200;2022-07-05T05:17:58;21.73;;;11.50;;
651;SDS011;310;48.490;9.200;2022-07-05T05:20:23;13.83;;;10.30;;
651;SDS011;310;48.490;9.200;2022-07-05T05:22:49;12.60;;;9.20;;
651;SDS011;310;48.490;9.200;2022-07-05T05:25:15;14.27;;;8.80;;
651;SDS011;310;48.490;9.200;2022-07-05T05:27:44;11.93;;;10.37;;
651;SDS011;310;48.490;9.200;2022-07-05T05:30:11;15.77;;;9.67;;
651;SDS011;310;48.490;9.200;2022-07-05T05:32:38;16.23;;;10.07;;
651;SDS011;310;48.490;9.200;2022-07-05T05:35:04;12.90;;;8.80;;
651;SDS011;310;48.490;9.200;2022-07-05T05:37:30;14.33;;;9.10;;
651;SDS011;310;48.490;9.200;2022-07-05T05:39:56;17.40;;;10.60;;
651;SDS011;310;48.490;9.200;2022-07-05T05:42:22;9.10;;;7.40;;
651;SDS011;310;48.490;9.200;2022-07-05T05:44:47;18.17;;;7.43;;
651;SDS011;310;48.490;9.200;2022-07-05T05:47:13;9.60;;;7.50;;
651;SDS011;310;48.490;9.200;2022-07-05T05:49:39;9.57;;;8.00;;
651;SDS011;310;48.490;9.200;2022-07-05T05:52:04;13.30;;;7.50;;
651;SDS011;310;48.490;9.200;2022-07-05T05:54:30;14.30;;;7.47;;
651;SDS011;310;48.490;9.200;2022-07-05T05:56:55;13.50;;;6.47;;
651;SDS011;310;48.490;9.200;2022-07-05T05:59:21;15.83;;;6.70;;
651;SDS011;310;48.490;9.200;2022-07-05T06:01:47;8.60;;;5.97;;
651;SDS011;310;48.490;9.200;2022-07-05T06:04:12;9.60;;;6.13;;
651;SDS011;310;48.490;9.200;2022-07-05T06:06:38;9.43;;;6.03;;
651;SDS011;310;48.490;9.200;2022-07-05T06:09:03;9.77;;;6.13;;
651;SDS011;310;48.490;9.200;2022-07-05T06:11:29;6.57;;;5.60;;
651;SDS011;310;48.490;9.200;2022-07-05T06:13:55;11.63;;;5.73;;
651;SDS011;310;48.490;9.200;2022-07-05T06:16:20;7.57;;;5.90;;
651;SDS011;310;48.490;9.200;2022-07-05T06:18:46;11.17;;;7.27;;
651;SDS011;310;48.490;9.200;2022-07-05T06:21:12;12.27;;;6.70;;
651;SDS011;310;48.490;9.200;2022-07-05T06:23:37;10.57;;;5.50;;
651;SDS011;310;48.490;9.200;2022-07-05T06:26:03;7.97;;;5.60;;
651;SDS011;310;48.490;9.200;2022-07-05T06:28:28;6.47;;;5.37;;
651;SDS011;310;48.490;9.200;2022-07-05T06:30:55;8.47;;;5.23;;
651;SDS011;310;48.490;9.200;2022-07-05T06:33:21;16.30;;;5.40;;
651;SDS011;310;48.490;9.200;2022-07-05T06:35:46;7.10;;;5.13;;
651;SDS011;310;48.490;9.200;2022-07-05T06:38:12;7.10;;;5.07;;
651;SDS011;310;48.490;9.200;2022-07-05T06:40:38;5.47;;;4.57;;
651;SDS011;310;48.490;9.200;2022-07-05T06:43:09;5.80;;;4.70;;
651;SDS011;310;48.490;9.200;2022-07-05T06:45:36;12.67;;;5.10;;
651;SDS011;310;48.490;9.200;2022-07-05T06:48:04;5.80;;;4.53;;
651;SDS011;310;48.490;9.200;2022-07-05T06:50:32;8.90;;;5.03;;
651;SDS011;310;48.490;9.200;2022-07-05T06:53:00;6.47;;;4.40;;
651;SDS011;310;48.490;9.200;2022-07-05T06:55:26;6.73;;;4.10;;
651;SDS011;310;48.490;9.200;2022-07-05T06:57:56;8.03;;;4.77;;
651;SDS011;310;48.490;9.200;2022-07-05T07:00:23;12.37;;;4.30;;
651;SDS011;310;48.490;9.200;2022-07-05T07:02:49;11.83;;;4.33;;
651;SDS011;310;48.490;9.200;2022-07-05T07:05:14;6.13;;;4.50;;
651;SDS011;310;48.490;9.200;2022-07-05T07:07:40;8.97;;;4.47;;
651;SDS011;310;48.490;9.200;2022-07-05T07:10:24;10.07;;;4.13;;
651;SDS011;310;48.490;9.200;2022-07-05T07:12:50;6.13;;;4.50;;
651;SDS011;310;48.490;9.200;2022-07-05T07:15:15;8.47;;;4.50;;
651;SDS011;310;48.490;9.200;2022-07-05T07:17:41;8.00;;;3.83;;
651;SDS011;310;48.490;9.200;2022-07-05T07:20:07;6.20;;;4.23;;
651;SDS011;310;48.490;9.200;2022-07-05T07:22:33;4.87;;;4.03;;
651;SDS011;310;48.490;9.200;2022-07-05T07:24:59;6.13;;;4.17;;
651;SDS011;310;48.490;9.200;2022-07-05T07:27:24;5.13;;;4.17;;
651;SDS011;310;48.490;9.200;2022-07-05T07:29:50;6.20;;;3.90;;
651;SDS011;310;48.490;9.200;2022-07-05T07:32:15;11.30;;;3.80;;
651;SDS011;310;48.490;9.200;2022-07-05T07:34:42;7.13;;;3.67;;
651;SDS011;310;48.490;9.200;2022-07-05T07:37:07;8.07;;;4.03;;
651;SDS011;310;48.490;9.200;2022-07-05T07:39:38;6.77;;;4.17;;
651;SDS011;310;48.490;9.200;2022-07-05T07:42:04;5.30;;;3.97;;
651;SDS011;310;48.490;9.200;2022-07-05T07:44:31;9.10;;;4.27;;
651;SDS011;310;48.490;9.200;2022-07-05T07:46:56;6.30;;;4.70;;
651;SDS011;310;48.490;9.200;2022-07-05T07:49:22;6.90;;;4.43;;
651;SDS011;310;48.490;9.200;2022-07-05T07:51:47;5.47;;;4.10;;
651;SDS011;310;48.490;9.200;2022-07-05T07:54:13;7.83;;;4.13;;
651;SDS011;310;48.490;9.200;2022-07-05T07:56:39;5.73;;;4.47;;
651;SDS011;310;48.490;9.200;2022-07-05T07:59:05;7.97;;;4.40;;
651;SDS011;310;48.490;9.200;2022-07-05T08:01:30;7.10;;;4.27;;
651;SDS011;310;48.490;9.200;2022-07-05T08:03:56;12.70;;;5.10;;
651;SDS011;310;48.490;9.200;2022-07-05T08:06:22;12.37;;;4.73;;
651;SDS011;310;48.490;9.200;2022-07-05T08:08:48;14.30;;;4.40;;
651;SDS011;310;48.490;9.200;2022-07-05T08:11:13;5.67;;;4.00;;
651;SDS011;310;48.490;9.200;2022-07-05T08:13:39;9.07;;;4.00;;
651;SDS011;310;48.490;9.200;2022-07-05T08:16:07;6.30;;;4.20;;
651;SDS011;310;48.490;9.200;2022-07-05T08:18:34;9.40;;;4.33;;
651;SDS011;310;48.490;9.200;2022-07-05T08:21:18;12.10;;;4.30;;
651;SDS011;310;48.490;9.200;2022-07-05T08:23:59;6.60;;;3.97;;
651;SDS011;310;48.490;9.200;2022-07-05T08:26:27;5.93;;;4.23;;
651;SDS011;310;48.490;9.200;2022-07-05T08:28:53;6.37;;;4.33;;
651;SDS011;310;48.490;9.200;2022-07-05T08:31:19;4.70;;;4.00;;
651;SDS011;310;48.490;9.200;2022-07-05T08:33:46;9.30;;;4.13;;
651;SDS011;310;48.490;9.200;2022-07-05T08:36:12;11.03;;;3.70;;
651;SDS011;310;48.490;9.200;2022-07-05T08:38:38;10.90;;;4.50;;
651;SDS011;310;48.490;9.200;2022-07-05T08:41:03;10.23;;;3.93;;
651;SDS011;310;48.490;9.200;2022-07-05T08:43:35;9.40;;;4.53;;
651;SDS011;310;48.490;9.200;2022-07-05T08:46:04;13.77;;;4.13;;
651;SDS011;310;48.490;9.200;2022-07-05T08:48:33;4.93;;;3.63;;
651;SDS011;310;48.490;9.200;2022-07-05T08:51:07;4.73;;;3.90;;
651;SDS011;310;48.490;9.200;2022-07-05T08:53:46;8.17;;;3.80;;
651;SDS011;310;48.490;9.200;2022-07-05T08:56:12;4.90;;;3.70;;
651;SDS011;310;48.490;9.200;2022-07-05T08:58:39;4.77;;;3.80;;
651;SDS011;310;48.490;9.200;2022-07-05T09:01:05;6.23;;;3.60;;
651;SDS011;310;48.490;9.200;2022-07-05T09:03:33;11.00;;;4.13;;
651;SDS011;310;48.490;9.200;2022-07-05T09:06:12;8.13;;;3.93;;
651;SDS011;310;48.490;9.200;2022-07-05T09:08:41;4.73;;;3.73;;
651;SDS011;310;48.490;9.200;2022-07-05T09:11:07;4.63;;;3.50;;
651;SDS011;310;48.490;9.200;2022-07-05T09:13:35;15.03;;;4.00;;
651;SDS011;310;48.490;9.200;2022-07-05T09:16:02;4.67;;;3.67;;
651;SDS011;310;48.490;9.200;2022-07-05T09:18:40;6.57;;;3.63;;
651;SDS011;310;48.490;9.200;2022-07-05T09:21:22;4.37;;;3.53;;
651;SDS011;310;48.490;9.200;2022-07-05T09:23:59;6.03;;;3.70;;
651;SDS011;310;48.490;9.200;2022-07-05T09:29:01;8.10;;;4.10;;
651;SDS011;310;48.490;9.200;2022-07-05T09:31:32;5.83;;;3.80;;
651;SDS011;310;48.490;9.200;2022-07-05T09:44:49;5.00;;;3.40;;
651;SDS011;310;48.490;9.200;2022-07-05T09:47:16;5.83;;;3.90;;
651;SDS011;310;48.490;9.200;2022-07-05T09:49:44;6.37;;;3.67;;
651;SDS011;310;48.490;9.200;2022-07-05T09:57:44;6.93;;;4.37;;
651;SDS011;310;48.490;9.200;2022-07-05T10:02:45;13.13;;;3.40;;
651;SDS011;310;48.490;9.200;2022-07-05T10:05:16;4.87;;;3.40;;
651;SDS011;310;48.490;9.200;2022-07-05T10:07:46;5.73;;;3.70;;
651;SDS011;310;48.490;9.200;2022-07-05T10:10:20;8.87;;;3.77;;
651;SDS011;310;48.490;9.200;2022-07-05T10:12:48;8.60;;;3.87;;
651;SDS011;310;48.490;9.200;2022-07-05T10:15:22;7.90;;;3.30;;
651;SDS011;310;48.490;9.200;2022-07-05T10:23:18;7.27;;;2.90;;
651;SDS011;310;48.490;9.200;2022-07-05T10:25:45;4.00;;;2.60;;
651;SDS011;310;48.490;9.200;2022-07-05T10:28:18;4.47;;;2.67;;
651;SDS011;310;48.490;9.200;2022-07-05T10:30:46;4.07;;;2.80;;
651;SDS011;310;48.490;9.200;2022-07-05T10:33:15;3.60;;;3.07;;
651;SDS011;310;48.490;9.200;2022-07-05T10:35:45;5.00;;;2.90;;
651;SDS011;310;48.490;9.200;2022-07-05T10:38:11;3.10;;;2.90;;
651;SDS011;310;48.490;9.200;2022-07-05T10:40:39;11.63;;;2.90;;
651;SDS011;310;48.490;9.200;2022-07-05T10:43:07;4.10;;;3.00;;
651;SDS011;310;48.490;9.200;2022-07-05T10:45:56;6.70;;;3.00;;
651;SDS011;310;48.490;9.200;2022-07-05T10:48:21;2.90;;;2.67;;
651;SDS011;310;48.490;9.200;2022-07-05T10:51:02;2.77;;;2.60;;
651;SDS011;310;48.490;9.200;2022-07-05T11:03:41;9.50;;;2.70;;
651;SDS011;310;48.490;9.200;2022-07-05T11:06:09;6.73;;;2.60;;
651;SDS011;310;48.490;9.200;2022-07-05T11:11:26;4.97;;;3.10;;
651;SDS011;310;48.490;9.200;2022-07-05T11:13:59;9.00;;;3.37;;
651;SDS011;310;48.490;9.200;2022-07-05T11:19:17;3.20;;;2.70;;
651;SDS011;310;48.490;9.200;2022-07-05T11:21:59;3.67;;;2.43;;
651;SDS011;310;48.490;9.200;2022-07-05T11:24:30;4.10;;;2.40;;
651;SDS011;310;48.490;9.200;2022-07-05T11:27:01;5.50;;;2.50;;
651;SDS011;310;48.490;9.200;2022-07-05T11:34:54;4.93;;;2.70;;
651;SDS011;310;48.490;9.200;2022-07-05T11:42:36;6.67;;;2.73;;
651;SDS011;310;48.490;9.200;2022-07-05T11:45:07;3.83;;;2.37;;
651;SDS011;310;48.490;9.200;2022-07-05T11:47:35;4.70;;;2.30;;
651;SDS011;310;48.490;9.200;2022-07-05T11:50:00;2.77;;;2.10;;
651;SDS011;310;48.490;9.200;2022-07-05T11:52:30;2.93;;;2.23;;
651;SDS011;310;48.490;9.200;2022-07-05T11:54:57;6.03;;;2.40;;
651;SDS011;310;48.490;9.200;2022-07-05T11:57:24;7.40;;;2.43;;
651;SDS011;310;48.490;9.200;2022-07-05T11:59:50;4.50;;;2.33;;
651;SDS011;310;48.490;9.200;2022-07-05T12:02:16;3.80;;;2.27;;
651;SDS011;310;48.490;9.200;2022-07-05T12:04:49;2.90;;;2.33;;
651;SDS011;310;48.490;9.200;2022-07-05T12:07:26;4.60;;;2.53;;
651;SDS011;310;48.490;9.200;2022-07-05T12:09:52;2.60;;;2.40;;
651;SDS011;310;48.490;9.200;2022-07-05T12:12:37;4.57;;;2.80;;
651;SDS011;310;48.490;9.200;2022-07-05T12:17:42;8.70;;;2.70;;
651;SDS011;310;48.490;9.200;2022-07-05T12:20:10;2.63;;;2.43;;
651;SDS011;310;48.490;9.200;2022-07-05T12:22:38;2.60;;;2.37;;
651;SDS011;310;48.490;9.200;2022-07-05T12:25:10;5.00;;;2.67;;
651;SDS011;310;48.490;9.200;2022-07-05T12:27:41;8.00;;;2.50;;
651;SDS011;310;48.490;9.200;2022-07-05T12:30:09;2.77;;;2.53;;
651;SDS011;310;48.490;9.200;2022-07-05T12:35:32;6.63;;;2.30;;
651;SDS011;310;48.490;9.200;2022-07-05T12:38:03;3.47;;;2.27;;
651;SDS011;310;48.490;9.200;2022-07-05T12:40:31;4.50;;;2.70;;
651;SDS011;310;48.490;9.200;2022-07-05T12:43:01;3.73;;;2.47;;
651;SDS011;310;48.490;9.200;2022-07-05T12:45:35;6.50;;;2.47;;
651;SDS011;310;48.490;9.200;2022-07-05T12:48:05;3.10;;;2.30;;
651;SDS011;310;48.490;9.200;2022-07-05T12:50:48;3.10;;;2.37;;
651;SDS011;310;48.490;9.200;2022-07-05T12:53:15;3.70;;;2.50;;
651;SDS011;310;48.490;9.200;2022-07-05T12:56:04;8.27;;;2.40;;
651;SDS011;310;48.490;9.200;2022-07-05T12:58:50;6.83;;;2.50;;
651;SDS011;310;48.490;9.200;2022-07-05T13:03:57;5.77;;;2.37;;
651;SDS011;310;48.490;9.200;2022-07-05T13:06:43;3.10;;;2.20;;
651;SDS011;310;48.490;9.200;2022-07-05T13:14:39;3.83;;;2.33;;
651;SDS011;310;48.490;9.200;2022-07-05T13:17:07;4.70;;;2.67;;
651;SDS011;310;48.490;9.200;2022-07-05T13:19:34;4.07;;;2.60;;
651;SDS011;310;48.490;9.200;2022-07-05T13:22:00;4.10;;;2.50;;
651;SDS011;310;48.490;9.200;2022-07-05T13:24:26;3.47;;;2.47;;
651;SDS011;310;48.490;9.200;2022-07-05T13:26:52;6.93;;;2.63;;
651;SDS011;310;48.490;9.200;2022-07-05T13:29:18;9.53;;;2.50;;
651;SDS011;310;48.490;9.200;2022-07-05T13:31:44;4.47;;;2.43;;
651;SDS011;310;48.490;9.200;2022-07-05T13:34:10;4.50;;;2.67;;
651;SDS011;310;48.490;9.200;2022-07-05T13:36:36;2.87;;;2.57;;
651;SDS011;310;48.490;9.200;2022-07-05T13:39:01;8.00;;;2.50;;
651;SDS011;310;48.490;9.200;2022-07-05T13:41:27;2.83;;;2.50;;
651;SDS011;310;48.490;9.200;2022-07-05T13:43:53;5.17;;;2.70;;
651;SDS011;310;48.490;9.200;2022-07-05T13:46:19;4.57;;;2.40;;
651;SDS011;310;48.490;9.200;2022-07-05T13:48:45;4.53;;;2.60;;
651;SDS011;310;48.490;9.200;2022-07-05T13:51:11;8.50;;;2.67;;
651;SDS011;310;48.490;9.200;2022-07-05T13:53:36;4.60;;;2.63;;
651;SDS011;310;48.490;9.200;2022-07-05T13:56:03;4.30;;;2.63;;
651;SDS011;310;48.490;9.200;2022-07-05T13:58:30;9.27;;;2.83;;
651;SDS011;310;48.490;9.200;2022-07-05T14:00:56;5.37;;;2.60;;
651;SDS011;310;48.490;9.200;2022-07-05T14:03:21;16.83;;;2.90;;
651;SDS011;310;48.490;9.200;2022-07-05T14:05:47;5.13;;;2.67;;
651;SDS011;310;48.490;9.200;2022-07-05T14:08:12;2.50;;;2.30;;
651;SDS011;310;48.490;9.200;2022-07-05T14:10:39;4.37;;;2.40;;
651;SDS011;310;48.490;9.200;2022-07-05T14:13:05;7.47;;;2.70;;
651;SDS011;310;48.490;9.200;2022-07-05T14:15:31;3.30;;;2.80;;
651;SDS011;310;48.490;9.200;2022-07-05T14:17:57;5.47;;;2.50;;
651;SDS011;310;48.490;9.200;2022-07-05T14:20:27;5.37;;;2.60;;
651;SDS011;310;48.490;9.200;2022-07-05T14:22:52;4.37;;;2.60;;
651;SDS011;310;48.490;9.200;2022-07-05T14:25:18;5.30;;;2.23;;
651;SDS011;310;48.490;9.200;2022-07-05T14:27:44;6.87;;;2.63;;
651;SDS011;310;48.490;9.200;2022-07-05T14:30:10;2.77;;;2.50;;
651;SDS011;310;48.490;9.200;2022-07-05T14:32:36;5.90;;;2.70;;
651;SDS011;310;48.490;9.200;2022-07-05T14:35:02;4.63;;;2.67;;
651;SDS011;310;48.490;9.200;2022-07-05T14:37:31;6.60;;;2.43;;
651;SDS011;310;48.490;9.200;2022-07-05T14:39:57;3.50;;;2.50;;
651;SDS011;310;48.490;9.200;2022-07-05T14:42:23;15.27;;;4.20;;
651;SDS011;310;48.490;9.200;2022-07-05T14:44:48;12.40;;;3.10;;
651;SDS011;310;48.490;9.200;2022-07-05T14:47:14;2.93;;;2.57;;
651;SDS011;310;48.490;9.200;2022-07-05T14:49:39;3.33;;;2.50;;
651;SDS011;310;48.490;9.200;2022-07-05T14:52:05;3.00;;;2.60;;
651;SDS011;310;48.490;9.200;2022-07-05T14:54:31;2.87;;;2.73;;
651;SDS011;310;48.490;9.200;2022-07-05T14:56:56;5.70;;;2.70;;
651;SDS011;310;48.490;9.200;2022-07-05T14:59:22;3.30;;;2.87;;
651;SDS011;310;48.490;9.200;2022-07-05T15:01:48;3.70;;;2.70;;
651;SDS011;310;48.490;9.200;2022-07-05T15:04:13;5.27;;;2.90;;
651;SDS011;310;48.490;9.200;2022-07-05T15:06:39;9.07;;;3.00;;
651;SDS011;310;48.490;9.200;2022-07-05T15:09:06;8.57;;;2.90;;
651;SDS011;310;48.490;9.200;2022-07-05T15:11:31;5.40;;;2.83;;
651;SDS011;310;48.490;9.200;2022-07-05T15:13:57;5.03;;;2.73;;
651;SDS011;310;48.490;9.200;2022-07-05T15:16:25;5.30;;;2.97;;
651;SDS011;310;48.490;9.200;2022-07-05T15:18:51;3.90;;;3.00;;
651;SDS011;310;48.490;9.200;2022-07-05T15:21:18;8.17;;;2.97;;
651;SDS011;310;48.490;9.200;2022-07-05T15:23:43;5.00;;;3.30;;
651;SDS011;310;48.490;9.200;2022-07-05T15:26:09;4.00;;;2.87;;
651;SDS011;310;48.490;9.200;2022-07-05T15:28:35;6.80;;;3.40;;
651;SDS011;310;48.490;9.200;2022-07-05T15:31:00;6.07;;;2.90;;
651;SDS011;310;48.490;9.200;2022-07-05T15:33:26;3.13;;;2.87;;
651;SDS011;310;48.490;9.200;2022-07-05T15:35:58;3.97;;;2.87;;
651;SDS011;310;48.490;9.200;2022-07-05T15:38:24;11.97;;;2.70;;
651;SDS011;310;48.490;9.200;2022-07-05T15:40:51;5.77;;;2.70;;
651;SDS011;310;48.490;9.200;2022-07-05T15:43:17;3.57;;;2.70;;
651;SDS011;310;48.490;9.200;2022-07-05T15:45:44;3.20;;;2.87;;
651;SDS011;310;48.490;9.200;2022-07-05T15:48:10;12.03;;;3.10;;
651;SDS011;310;48.490;9.200;2022-07-05T15:50:36;6.40;;;3.43;;
651;SDS011;310;48.490;9.200;2022-07-05T15:53:02;8.50;;;3.23;;
651;SDS011;310;48.490;9.200;2022-07-05T15:55:28;3.10;;;2.80;;
651;SDS011;310;48.490;9.200;2022-07-05T15:57:53;4.90;;;3.00;;
651;SDS011;310;48.490;9.200;2022-07-05T16:00:19;4.73;;;3.10;;
651;SDS011;310;48.490;9.200;2022-07-05T16:02:44;4.10;;;2.80;;
651;SDS011;310;48.490;9.200;2022-07-05T16:05:10;4.53;;;3.43;;
651;SDS011;310;48.490;9.200;2022-07-05T16:07:36;5.83;;;2.90;;
651;SDS011;310;48.490;9.200;2022-07-05T16:10:01;3.60;;;2.80;;
651;SDS011;310;48.490;9.200;2022-07-05T16:12:27;5.73;;;3.37;;
651;SDS011;310;48.490;9.200;2022-07-05T16:14:53;6.57;;;3.20;;
651;SDS011;310;48.490;9.200;2022-07-05T16:17:19;7.73;;;3.10;;
651;SDS011;310;48.490;9.200;2022-07-05T16:19:45;6.57;;;3.47;;
651;SDS011;310;48.490;9.200;2022-07-05T16:22:10;3.80;;;3.00;;
651;SDS011;310;48.490;9.200;2022-07-05T16:24:36;3.57;;;3.10;;
651;SDS011;310;48.490;9.200;2022-07-05T16:27:01;5.43;;;3.20;;
651;SDS011;310;48.490;9.200;2022-07-05T16:29:27;8.23;;;3.73;;
651;SDS011;310;48.490;9.200;2022-07-05T16:31:53;9.30;;;3.50;;
651;SDS011;310;48.490;9.200;2022-07-05T16:34:19;3.80;;;3.00;;
651;SDS011;310;48.490;9.200;2022-07-05T16:36:44;12.93;;;3.70;;
651;SDS011;310;48.490;9.200;2022-07-05T16:39:10;11.03;;;3.33;;
651;SDS011;310;48.490;9.200;2022-07-05T16:41:36;4.43;;;3.30;;
651;SDS011;310;48.490;9.200;2022-07-05T16:44:02;9.10;;;2.70;;
651;SDS011;310;48.490;9.200;2022-07-05T16:46:28;7.30;;;2.80;;